createdAt,value
2018-05-10T00:01:55.302Z,4.87
2018-05-10T00:04:22.809Z,5.47
2018-05-10T00:06:50.207Z,4.87
2018-05-10T00:09:17.623Z,4.77
2018-05-10T00:11:45.080Z,4.57
2018-05-10T00:14:12.491Z,5.00
2018-05-10T00:16:39.891Z,4.80
2018-05-10T00:19:07.341Z,5.00
2018-05-10T00:21:34.776Z,5.73
2018-05-10T00:24:02.185Z,5.00
2018-05-10T00:26:29.684Z,5.33
2018-05-10T00:28:57.081Z,5.03
2018-05-10T00:31:24.580Z,4.40
2018-05-10T00:33:51.960Z,4.80
2018-05-10T00:36:19.383Z,4.70
2018-05-10T00:38:46.778Z,5.80
2018-05-10T00:41:14.219Z,5.07
2018-05-10T00:43:41.636Z,5.27
2018-05-10T00:46:09.300Z,5.10
2018-05-10T00:48:36.693Z,4.87
2018-05-10T00:51:04.173Z,5.00
2018-05-10T00:53:31.561Z,5.27
2018-05-10T00:55:59.033Z,4.70
2018-05-10T00:58:26.445Z,4.37
2018-05-10T01:00:53.871Z,4.73
2018-05-10T01:03:21.312Z,5.00
2018-05-10T01:05:48.724Z,5.00
2018-05-10T01:08:16.190Z,5.07
2018-05-10T01:10:43.608Z,4.80
2018-05-10T01:13:11.040Z,4.40
2018-05-10T01:15:38.434Z,4.90
2018-05-10T01:18:05.940Z,5.50
2018-05-10T01:20:33.370Z,4.83
2018-05-10T01:23:00.774Z,5.10
2018-05-10T01:25:28.178Z,5.57
2018-05-10T01:27:55.665Z,6.40
2018-05-10T01:30:23.042Z,5.90
2018-05-10T01:32:50.584Z,6.50
2018-05-10T01:35:29.687Z,7.53
2018-05-10T01:37:57.097Z,6.97
2018-05-10T01:40:24.487Z,6.60
2018-05-10T01:42:51.924Z,7.60
2018-05-10T01:45:19.323Z,5.93
2018-05-10T01:47:46.742Z,6.57
2018-05-10T01:50:14.153Z,6.50
2018-05-10T01:52:41.564Z,6.40
2018-05-10T01:55:08.997Z,5.97
2018-05-10T01:57:36.537Z,6.30
2018-05-10T02:00:03.955Z,6.27
2018-05-10T02:02:31.336Z,6.10
2018-05-10T02:04:58.786Z,6.33
2018-05-10T02:07:26.188Z,5.87
2018-05-10T02:09:53.628Z,5.93
2018-05-10T02:12:21.022Z,5.90
2018-05-10T02:14:48.467Z,5.70
2018-05-10T02:17:15.843Z,6.87
2018-05-10T02:19:43.277Z,6.40
2018-05-10T02:22:10.681Z,6.00
2018-05-10T02:24:38.122Z,5.93
2018-05-10T02:27:05.544Z,6.90
2018-05-10T02:29:32.976Z,7.13
2018-05-10T02:32:00.398Z,8.00
2018-05-10T02:34:28.089Z,7.13
2018-05-10T02:36:55.505Z,5.80
2018-05-10T02:39:22.897Z,7.13
2018-05-10T02:41:50.542Z,6.27
2018-05-10T02:44:17.936Z,6.33
2018-05-10T02:46:45.359Z,6.50
2018-05-10T02:49:12.824Z,5.83
2018-05-10T02:51:40.276Z,6.60
2018-05-10T02:54:07.686Z,7.10
2018-05-10T02:56:35.088Z,7.00
2018-05-10T02:59:02.476Z,6.97
2018-05-10T03:01:29.874Z,7.17
2018-05-10T03:03:57.579Z,10.00
2018-05-10T03:06:25.052Z,7.97
2018-05-10T03:08:52.443Z,8.57
2018-05-10T03:11:19.870Z,9.60
2018-05-10T03:13:47.284Z,10.30
2018-05-10T03:16:14.687Z,8.70
2018-05-10T03:18:42.102Z,9.40
2018-05-10T03:21:09.498Z,9.13
2018-05-10T03:23:37.007Z,9.93
2018-05-10T03:26:04.404Z,10.20
2018-05-10T03:28:31.811Z,10.97
2018-05-10T03:30:59.263Z,11.20
2018-05-10T03:33:26.680Z,10.70
2018-05-10T03:35:54.112Z,10.10
2018-05-10T03:38:21.519Z,8.93
2018-05-10T03:40:48.944Z,10.03
2018-05-10T03:43:16.361Z,9.90
2018-05-10T03:45:43.904Z,10.20
2018-05-10T03:48:11.347Z,9.93
2018-05-10T03:50:38.830Z,10.07
2018-05-10T03:53:06.289Z,10.03
2018-05-10T03:55:33.901Z,9.93
2018-05-10T03:58:01.287Z,12.40
2018-05-10T04:00:28.776Z,9.97
2018-05-10T04:06:26.435Z,10.70
2018-05-10T04:09:05.546Z,11.33
2018-05-10T04:11:32.976Z,11.00
2018-05-10T04:14:00.376Z,11.10
2018-05-10T04:16:27.824Z,10.20
2018-05-10T04:18:55.238Z,11.03
2018-05-10T04:21:22.638Z,10.40
2018-05-10T04:23:50.059Z,10.87
2018-05-10T04:26:17.546Z,10.30
2018-05-10T04:28:44.966Z,10.90
2018-05-10T04:31:12.419Z,10.90
2018-05-10T04:33:39.993Z,11.33
2018-05-10T04:36:07.311Z,11.20
2018-05-10T04:38:34.736Z,12.10
2018-05-10T04:41:02.162Z,10.37
2018-05-10T04:43:29.684Z,9.97
2018-05-10T04:45:57.145Z,11.50
2018-05-10T04:48:24.575Z,10.73
2018-05-10T04:50:52.004Z,10.57
2018-05-10T04:53:19.422Z,10.83
2018-05-10T04:55:46.834Z,10.30
2018-05-10T04:58:14.349Z,11.03
2018-05-10T05:00:41.746Z,10.10
2018-05-10T05:03:09.207Z,11.30
2018-05-10T05:05:36.580Z,12.30
2018-05-10T05:08:04.186Z,11.10
2018-05-10T05:10:31.598Z,12.70
2018-05-10T05:12:59.013Z,11.70
2018-05-10T05:15:26.440Z,12.03
2018-05-10T05:17:53.856Z,11.87
2018-05-10T05:20:21.266Z,12.60
2018-05-10T05:22:48.670Z,12.67
2018-05-10T05:25:16.088Z,12.27
2018-05-10T05:27:43.510Z,13.23
2018-05-10T05:30:10.920Z,12.80
2018-05-10T05:32:38.393Z,12.50
2018-05-10T05:35:05.731Z,11.80
2018-05-10T05:37:33.403Z,12.20
2018-05-10T05:40:00.819Z,13.03
2018-05-10T05:42:28.624Z,12.27
2018-05-10T05:44:56.077Z,12.57
2018-05-10T05:47:23.487Z,12.80
2018-05-10T05:49:50.943Z,13.73
2018-05-10T05:52:18.378Z,12.97
2018-05-10T05:54:45.762Z,12.80
2018-05-10T05:57:13.186Z,14.90
2018-05-10T05:59:40.612Z,12.90
2018-05-10T06:02:08.301Z,13.80
2018-05-10T06:04:35.685Z,15.80
2018-05-10T06:07:03.123Z,15.17
2018-05-10T06:09:30.507Z,14.40
2018-05-10T06:11:58.119Z,13.90
2018-05-10T06:14:25.520Z,13.47
2018-05-10T06:16:52.936Z,13.50
2018-05-10T06:19:20.422Z,13.43
2018-05-10T06:21:47.904Z,13.20
2018-05-10T06:24:15.317Z,12.30
2018-05-10T06:26:42.974Z,13.00
2018-05-10T06:29:10.365Z,13.13
2018-05-10T06:31:37.815Z,14.07
2018-05-10T06:34:05.367Z,15.47
2018-05-10T06:36:32.658Z,25.97
2018-05-10T06:39:00.100Z,27.03
2018-05-10T06:41:27.565Z,31.37
2018-05-10T06:43:55.293Z,31.67
2018-05-10T06:46:22.664Z,33.47
2018-05-10T06:48:50.147Z,35.10
2018-05-10T06:51:17.595Z,38.07
2018-05-10T06:53:45.039Z,37.63
2018-05-10T06:56:12.443Z,39.13
2018-05-10T06:58:39.900Z,45.07
2018-05-10T07:01:07.355Z,44.93
2018-05-10T07:03:34.835Z,45.90
2018-05-10T07:06:02.264Z,43.80
2018-05-10T07:08:29.684Z,45.70
2018-05-10T07:10:57.235Z,48.77
2018-05-10T07:13:24.671Z,46.80
2018-05-10T07:15:52.088Z,48.20
2018-05-10T07:18:19.904Z,48.60
2018-05-10T07:20:47.336Z,48.50
2018-05-10T07:23:14.730Z,48.10
2018-05-10T07:25:42.481Z,45.37
2018-05-10T07:28:10.351Z,46.73
2018-05-10T07:30:37.769Z,42.60
2018-05-10T07:33:05.459Z,43.67
2018-05-10T07:35:32.892Z,47.30
2018-05-10T07:38:00.303Z,48.17
2018-05-10T07:40:27.933Z,48.13
2018-05-10T07:42:55.337Z,50.63
2018-05-10T07:45:22.752Z,49.07
2018-05-10T07:47:51.767Z,45.67
2018-05-10T07:50:19.342Z,45.00
2018-05-10T07:52:46.750Z,45.07
2018-05-10T07:55:14.218Z,46.40
2018-05-10T07:57:41.654Z,47.67
2018-05-10T08:00:09.439Z,47.03
2018-05-10T08:02:37.375Z,45.17
2018-05-10T08:05:05.196Z,49.07
2018-05-10T08:07:32.619Z,47.20
2018-05-10T08:10:00.133Z,50.80
2018-05-10T08:12:27.626Z,50.30
2018-05-10T08:14:55.069Z,47.10
2018-05-10T08:17:25.158Z,47.80
2018-05-10T08:19:53.423Z,47.20
2018-05-10T08:22:20.867Z,46.93
2018-05-10T08:24:48.304Z,46.50
2018-05-10T08:27:15.993Z,47.33
2018-05-10T08:29:49.355Z,46.80
2018-05-10T08:32:16.771Z,47.80
2018-05-10T08:34:44.201Z,47.57
2018-05-10T08:37:11.639Z,45.00
2018-05-10T08:39:39.219Z,50.20
2018-05-10T08:42:07.256Z,44.17
2018-05-10T08:44:54.505Z,44.70
2018-05-10T08:47:33.037Z,44.73
2018-05-10T08:52:40.505Z,43.97
2018-05-10T08:55:07.980Z,43.90
2018-05-10T08:57:35.388Z,45.03
2018-05-10T09:00:02.849Z,44.70
2018-05-10T09:02:30.230Z,43.43
2018-05-10T09:04:58.056Z,45.00
2018-05-10T09:07:25.537Z,45.70
2018-05-10T09:09:52.961Z,45.20
2018-05-10T09:12:20.352Z,44.20
2018-05-10T09:14:47.820Z,41.60
2018-05-10T09:17:15.376Z,38.70
2018-05-10T09:19:43.113Z,29.57
2018-05-10T09:22:10.524Z,27.07
2018-05-10T09:24:38.268Z,25.70
2018-05-10T09:27:05.807Z,24.17
2018-05-10T09:29:33.258Z,20.00
2018-05-10T09:32:00.818Z,19.70
2018-05-10T09:34:28.260Z,17.87
2018-05-10T09:36:55.692Z,18.27
2018-05-10T09:39:23.195Z,18.67
2018-05-10T09:41:50.623Z,16.70
2018-05-10T09:44:18.049Z,16.80
2018-05-10T09:46:45.469Z,15.70
2018-05-10T09:49:12.892Z,13.13
2018-05-10T09:51:40.325Z,12.13
2018-05-10T09:54:08.040Z,10.90
2018-05-10T09:56:35.477Z,10.70
2018-05-10T09:59:02.959Z,9.47
2018-05-10T10:01:30.382Z,11.10
2018-05-10T10:03:57.949Z,10.97
2018-05-10T10:06:25.399Z,10.50
2018-05-10T10:08:52.804Z,10.03
2018-05-10T10:11:20.237Z,8.60
2018-05-10T10:13:47.828Z,8.37
2018-05-10T10:16:15.259Z,9.20
2018-05-10T10:18:42.665Z,7.70
2018-05-10T10:21:10.089Z,8.30
2018-05-10T10:23:37.460Z,8.17
2018-05-10T10:26:04.929Z,7.70
2018-05-10T10:28:32.418Z,7.50
2018-05-10T10:30:59.968Z,7.07
2018-05-10T10:33:27.506Z,7.17
2018-05-10T10:35:54.990Z,6.30
2018-05-10T10:38:22.419Z,6.07
2018-05-10T10:40:49.819Z,6.50
2018-05-10T10:43:17.279Z,7.13
2018-05-10T10:45:44.723Z,7.80
2018-05-10T10:48:12.316Z,9.03
2018-05-10T10:50:39.752Z,8.40
2018-05-10T10:53:07.159Z,7.90
2018-05-10T10:55:34.618Z,8.13
2018-05-10T10:58:02.068Z,9.80
2018-05-10T11:00:29.709Z,9.57
2018-05-10T11:02:57.151Z,10.03
2018-05-10T11:05:24.690Z,10.30
2018-05-10T11:07:52.375Z,10.10
2018-05-10T11:10:19.813Z,9.23
2018-05-10T11:12:47.235Z,16.20
2018-05-10T11:15:14.750Z,22.30
2018-05-10T11:17:42.276Z,21.13
2018-05-10T11:20:09.676Z,22.50
2018-05-10T11:22:37.160Z,21.30
2018-05-10T11:25:04.683Z,23.53
2018-05-10T11:27:34.226Z,20.83
2018-05-10T11:30:01.765Z,22.90
2018-05-10T11:32:29.218Z,21.80
2018-05-10T11:34:56.787Z,22.17
2018-05-10T11:37:24.360Z,21.63
2018-05-10T11:39:51.781Z,21.30
2018-05-10T11:42:19.228Z,22.40
2018-05-10T11:44:46.817Z,20.37
2018-05-10T11:47:15.068Z,21.90
2018-05-10T11:49:42.500Z,22.10
2018-05-10T11:52:09.930Z,24.33
2018-05-10T11:54:37.381Z,22.33
2018-05-10T11:57:04.857Z,23.43
2018-05-10T11:59:32.567Z,22.10
2018-05-10T12:02:00.474Z,21.60
2018-05-10T12:04:27.918Z,20.53
2018-05-10T12:06:55.355Z,21.47
2018-05-10T12:09:22.865Z,22.33
2018-05-10T12:11:50.287Z,21.13
2018-05-10T12:14:17.726Z,19.70
2018-05-10T12:16:45.509Z,20.40
2018-05-10T12:19:12.998Z,18.60
2018-05-10T12:21:40.337Z,20.87
2018-05-10T12:24:07.782Z,20.17
2018-05-10T12:26:35.186Z,18.97
2018-05-10T12:29:02.625Z,19.73
2018-05-10T12:31:30.031Z,19.43
2018-05-10T12:33:57.499Z,18.40
2018-05-10T12:36:24.913Z,18.83
2018-05-10T12:38:52.348Z,18.33
2018-05-10T12:41:19.782Z,18.90
2018-05-10T12:43:47.226Z,18.00
2018-05-10T12:46:24.256Z,15.60
2018-05-10T12:48:51.683Z,15.33
2018-05-10T12:51:19.133Z,15.13
2018-05-10T12:53:46.566Z,14.23
2018-05-10T12:56:14.078Z,17.57
2018-05-10T12:58:41.413Z,19.50
2018-05-10T13:01:08.865Z,19.80
2018-05-10T13:03:36.247Z,21.10
2018-05-10T13:06:03.689Z,22.30
2018-05-10T13:08:31.093Z,22.63
2018-05-10T13:10:58.789Z,24.00
2018-05-10T13:13:26.364Z,26.40
2018-05-10T13:15:53.849Z,25.00
2018-05-10T13:18:21.160Z,28.03
2018-05-10T13:20:48.599Z,29.20
2018-05-10T13:23:16.129Z,29.10
2018-05-10T13:25:43.860Z,29.00
2018-05-10T13:28:11.417Z,29.63
2018-05-10T13:30:38.882Z,31.23
2018-05-10T13:33:06.334Z,28.50
2018-05-10T13:35:33.792Z,28.43
2018-05-10T13:38:01.192Z,27.90
2018-05-10T13:40:28.630Z,30.77
2018-05-10T13:42:56.154Z,32.77
2018-05-10T13:45:23.590Z,32.67
2018-05-10T13:47:51.017Z,30.50
2018-05-10T13:50:18.451Z,32.03
2018-05-10T13:52:45.855Z,30.13
2018-05-10T13:55:13.255Z,29.13
2018-05-10T13:57:40.706Z,27.40
2018-05-10T14:00:08.252Z,27.90
2018-05-10T14:02:35.714Z,26.33
2018-05-10T14:05:03.272Z,22.00
2018-05-10T14:07:30.722Z,18.20
2018-05-10T14:09:58.510Z,18.80
2018-05-10T14:12:25.980Z,15.97
2018-05-10T14:14:53.391Z,15.87
2018-05-10T14:17:20.802Z,15.37
2018-05-10T14:19:48.206Z,14.03
2018-05-10T14:22:15.633Z,13.83
2018-05-10T14:24:43.273Z,12.37
2018-05-10T14:27:10.697Z,10.50
2018-05-10T14:29:38.130Z,7.50
2018-05-10T14:32:05.540Z,7.63
2018-05-10T14:34:32.971Z,7.07
2018-05-10T14:37:00.387Z,5.80
2018-05-10T14:39:27.858Z,5.57
2018-05-10T14:41:55.254Z,5.13
2018-05-10T14:44:22.693Z,4.63
2018-05-10T14:46:50.085Z,5.00
2018-05-10T14:49:17.510Z,4.47
2018-05-10T14:51:44.924Z,3.87
2018-05-10T14:54:12.526Z,3.80
2018-05-10T14:56:39.915Z,4.23
2018-05-10T14:59:07.560Z,3.60
2018-05-10T15:01:35.119Z,4.00
2018-05-10T15:04:02.579Z,4.00
2018-05-10T15:06:30.040Z,4.13
2018-05-10T15:08:57.457Z,5.00
2018-05-10T15:11:24.917Z,4.10
2018-05-10T15:13:52.424Z,4.50
2018-05-10T15:16:19.835Z,3.90
2018-05-10T15:18:47.268Z,4.43
2018-05-10T15:21:14.676Z,3.90
2018-05-10T15:23:42.258Z,4.90
2018-05-10T15:26:09.670Z,4.53
2018-05-10T15:28:37.114Z,5.30
2018-05-10T15:31:04.541Z,5.20
2018-05-10T15:33:31.935Z,5.50
2018-05-10T15:35:59.376Z,5.50
2018-05-10T15:38:26.772Z,5.57
2018-05-10T15:40:54.319Z,5.20
2018-05-10T15:43:21.787Z,5.57
2018-05-10T15:45:49.254Z,5.80
2018-05-10T15:48:16.662Z,5.40
2018-05-10T15:50:44.067Z,5.13
2018-05-10T15:53:11.521Z,6.13
2018-05-10T15:55:39.008Z,5.30
2018-05-10T15:58:06.418Z,7.00
2018-05-10T16:00:33.804Z,7.17
2018-05-10T16:03:01.374Z,6.63
2018-05-10T16:05:28.760Z,7.00
2018-05-10T16:07:56.191Z,7.10
2018-05-10T16:10:23.603Z,6.20
2018-05-10T16:12:51.062Z,7.50
2018-05-10T16:15:18.559Z,8.50
2018-05-10T16:17:45.974Z,9.27
2018-05-10T16:20:13.366Z,7.77
2018-05-10T16:22:40.795Z,9.07
2018-05-10T16:25:08.208Z,8.50
2018-05-10T16:27:35.684Z,9.37
2018-05-10T16:30:03.397Z,9.13
2018-05-10T16:32:30.970Z,9.03
2018-05-10T16:34:58.430Z,12.13
2018-05-10T16:37:25.919Z,10.40
2018-05-10T16:39:53.437Z,12.07
2018-05-10T16:42:21.173Z,12.10
2018-05-10T16:44:48.620Z,15.30
2018-05-10T16:47:16.066Z,13.07
2018-05-10T16:49:43.517Z,13.30
2018-05-10T16:52:10.959Z,14.77
2018-05-10T16:54:38.390Z,17.13
2018-05-10T16:57:05.832Z,17.60
2018-05-10T16:59:33.245Z,16.20
2018-05-10T17:02:00.840Z,16.00
2018-05-10T17:04:28.292Z,16.60
2018-05-10T17:06:55.718Z,18.83
2018-05-10T17:09:23.235Z,20.23
2018-05-10T17:11:50.652Z,19.87
2018-05-10T17:14:18.161Z,21.00
2018-05-10T17:16:45.574Z,20.93
2018-05-10T17:19:13.000Z,20.70
2018-05-10T17:21:40.428Z,20.27
2018-05-10T17:24:07.890Z,21.00
2018-05-10T17:26:35.311Z,20.70
2018-05-10T17:29:02.752Z,19.90
2018-05-10T17:31:30.233Z,21.20
2018-05-10T17:33:57.639Z,20.00
2018-05-10T17:36:25.268Z,19.70
2018-05-10T17:38:52.674Z,20.20
2018-05-10T17:41:20.100Z,22.00
2018-05-10T17:43:47.505Z,18.70
2018-05-10T17:46:14.955Z,20.47
2018-05-10T17:48:42.418Z,17.90
2018-05-10T17:51:09.945Z,19.63
2018-05-10T17:53:37.379Z,19.03
2018-05-10T17:56:04.812Z,18.03
2018-05-10T17:58:32.242Z,18.60
2018-05-10T18:00:59.670Z,17.90
2018-05-10T18:03:27.253Z,17.90
2018-05-10T18:05:54.979Z,17.83
2018-05-10T18:08:22.411Z,18.23
2018-05-10T18:10:49.847Z,17.00
2018-05-10T18:13:17.271Z,17.73
2018-05-10T18:15:44.876Z,16.07
2018-05-10T18:18:12.365Z,16.77
2018-05-10T18:20:39.794Z,15.87
2018-05-10T18:23:07.250Z,16.70
2018-05-10T18:25:34.691Z,16.77
2018-05-10T18:28:02.145Z,16.50
2018-05-10T18:30:29.543Z,16.17
2018-05-10T18:32:57.367Z,17.03
2018-05-10T18:35:24.846Z,16.83
2018-05-10T18:37:52.359Z,17.23
2018-05-10T18:40:19.774Z,17.83
2018-05-10T18:42:47.220Z,18.13
2018-05-10T18:45:14.670Z,16.83
2018-05-10T18:47:42.068Z,17.27
2018-05-10T18:50:09.643Z,17.40
2018-05-10T18:52:37.178Z,17.83
2018-05-10T18:55:04.646Z,17.30
2018-05-10T18:57:32.073Z,17.40
2018-05-10T18:59:59.498Z,18.50
2018-05-10T19:02:26.921Z,18.33
2018-05-10T19:04:54.473Z,17.67
2018-05-10T19:07:22.101Z,17.90
2018-05-10T19:09:49.501Z,17.53
2018-05-10T19:12:16.953Z,17.47
2018-05-10T19:14:44.373Z,17.20
2018-05-10T19:17:11.798Z,16.63
2018-05-10T19:19:39.232Z,17.00
2018-05-10T19:22:06.721Z,17.17
2018-05-10T19:24:34.360Z,17.20
2018-05-10T19:27:01.777Z,16.20
2018-05-10T19:29:29.224Z,18.10
2018-05-10T19:31:58.886Z,16.30
2018-05-10T19:34:26.362Z,16.73
2018-05-10T19:36:53.796Z,16.40
2018-05-10T19:39:21.265Z,16.63
2018-05-10T19:41:49.081Z,17.53
2018-05-10T19:44:16.543Z,16.13
2018-05-10T19:46:43.971Z,17.00
2018-05-10T19:49:11.393Z,16.30
2018-05-10T19:51:38.882Z,18.03
2018-05-10T19:54:06.349Z,16.57
2018-05-10T19:56:33.910Z,16.00
2018-05-10T19:59:01.273Z,17.47
2018-05-10T20:01:34.017Z,16.67
2018-05-10T20:04:01.473Z,17.83
2018-05-10T20:06:28.900Z,17.13
2018-05-10T20:08:56.350Z,16.83
2018-05-10T20:11:23.799Z,16.33
2018-05-10T20:13:51.404Z,17.00
2018-05-10T20:16:18.997Z,17.40
2018-05-10T20:18:46.690Z,16.60
2018-05-10T20:21:14.503Z,16.17
2018-05-10T20:23:41.911Z,16.17
2018-05-10T20:26:09.400Z,17.00
2018-05-10T20:28:37.381Z,17.80
2018-05-10T20:31:07.889Z,16.87
2018-05-10T20:33:35.361Z,15.70
2018-05-10T20:36:02.865Z,16.10
2018-05-10T20:38:30.353Z,15.50
2018-05-10T20:40:57.899Z,16.60
2018-05-10T20:43:25.382Z,15.93
2018-05-10T20:45:52.831Z,15.97
2018-05-10T20:48:20.275Z,16.23
2018-05-10T20:50:47.967Z,14.43
2018-05-10T20:53:15.488Z,16.60
2018-05-10T20:55:42.921Z,14.40
2018-05-10T20:58:10.365Z,13.77
2018-05-10T21:00:37.787Z,14.90
2018-05-10T21:03:05.241Z,13.73
2018-05-10T21:05:32.653Z,15.17
2018-05-10T21:08:00.080Z,13.70
2018-05-10T21:10:27.494Z,13.10
2018-05-10T21:12:55.019Z,14.60
2018-05-10T21:15:22.468Z,14.60
2018-05-10T21:17:49.880Z,12.97
2018-05-10T21:20:17.313Z,13.70
2018-05-10T21:22:44.781Z,13.00
2018-05-10T21:25:12.216Z,13.30
2018-05-10T21:27:39.684Z,12.17
2018-05-10T21:30:07.076Z,11.93
2018-05-10T21:32:34.664Z,12.53
2018-05-10T21:35:02.095Z,12.23
2018-05-10T21:37:29.558Z,11.40
2018-05-10T21:39:57.056Z,12.47
2018-05-10T21:42:24.501Z,12.27
2018-05-10T21:44:52.144Z,13.70
2018-05-10T21:47:19.412Z,13.77
2018-05-10T21:49:58.519Z,11.30
2018-05-10T21:52:25.972Z,12.23
2018-05-10T21:54:53.439Z,11.83
2018-05-10T21:57:20.971Z,11.57
2018-05-10T21:59:48.465Z,12.63
2018-05-10T22:02:23.608Z,12.90
2018-05-10T22:04:51.168Z,12.47
2018-05-10T22:07:18.596Z,11.53
2018-05-10T22:09:46.020Z,11.70
2018-05-10T22:12:13.628Z,13.10
2018-05-10T22:14:41.150Z,12.17
2018-05-10T22:17:11.828Z,12.40
2018-05-10T22:19:44.827Z,13.17
2018-05-10T22:22:26.716Z,11.93
2018-05-10T22:25:12.445Z,12.83
2018-05-10T22:28:01.371Z,13.00
2018-05-10T22:30:45.278Z,12.67
2018-05-10T22:33:21.925Z,12.90
2018-05-10T22:36:01.602Z,12.90
2018-05-10T22:38:41.709Z,12.93
2018-05-10T22:41:22.897Z,13.00
2018-05-10T22:43:58.503Z,12.80
2018-05-10T22:46:32.885Z,12.10
2018-05-10T22:49:26.839Z,12.43
2018-05-10T22:52:24.937Z,13.20
2018-05-10T22:55:05.974Z,11.33
2018-05-10T22:57:33.431Z,12.80
2018-05-10T23:00:00.827Z,13.10
2018-05-10T23:02:28.247Z,12.87
2018-05-10T23:04:55.648Z,13.37
2018-05-10T23:07:23.259Z,12.87
2018-05-10T23:09:50.740Z,13.30
2018-05-10T23:12:18.163Z,12.37
2018-05-10T23:14:45.635Z,12.17
2018-05-10T23:17:13.040Z,14.57
2018-05-10T23:19:40.471Z,13.90
2018-05-10T23:22:07.880Z,13.40
2018-05-10T23:24:35.299Z,12.77
2018-05-10T23:27:02.808Z,13.90
2018-05-10T23:29:30.232Z,12.43
2018-05-10T23:31:57.620Z,14.00
2018-05-10T23:34:25.026Z,13.97
2018-05-10T23:36:52.440Z,13.93
2018-05-10T23:39:19.861Z,14.40
2018-05-10T23:41:47.252Z,13.70
2018-05-10T23:44:14.689Z,14.63
2018-05-10T23:46:42.156Z,14.13
2018-05-10T23:49:09.759Z,14.27
2018-05-10T23:51:37.335Z,14.53
2018-05-10T23:54:04.771Z,14.07
2018-05-10T23:56:32.187Z,13.90
2018-05-10T23:58:59.633Z,14.27
